createdAt,value
2023-01-27T00:01:28.675Z,14.86
2023-01-27T00:03:59.401Z,14.87
2023-01-27T00:06:30.018Z,14.62
2023-01-27T00:09:00.561Z,14.79
2023-01-27T00:11:48.813Z,14.94
2023-01-27T00:14:19.424Z,15.04
2023-01-27T00:16:50.063Z,15.09
2023-01-27T00:19:22.311Z,15.54
2023-01-27T00:22:11.043Z,14.91
2023-01-27T00:24:42.685Z,15.16
2023-01-27T00:27:13.425Z,15.09
2023-01-27T00:29:43.956Z,14.90
2023-01-27T00:32:32.393Z,15.04
2023-01-27T00:35:02.965Z,15.18
2023-01-27T00:37:33.495Z,15.21
2023-01-27T00:40:04.065Z,14.89
2023-01-27T00:42:34.638Z,15.19
2023-01-27T00:45:24.513Z,15.08
2023-01-27T00:47:55.308Z,14.83
2023-01-27T00:50:26.526Z,14.87
2023-01-27T00:52:58.702Z,14.56
2023-01-27T00:55:29.232Z,15.04
2023-01-27T00:57:59.777Z,14.61
2023-01-27T01:00:30.312Z,14.63
2023-01-27T01:03:00.942Z,14.55
2023-01-27T01:05:31.632Z,14.60
2023-01-27T01:08:02.154Z,14.75
2023-01-27T01:10:32.699Z,14.15
2023-01-27T01:13:03.286Z,14.81
2023-01-27T01:15:38.595Z,14.86
2023-01-27T01:18:11.012Z,14.93
2023-01-27T01:20:44.253Z,14.35
2023-01-27T01:23:16.516Z,14.38
2023-01-27T01:25:58.344Z,14.72
2023-01-27T01:28:28.892Z,14.47
2023-01-27T01:31:11.270Z,14.00
2023-01-27T01:33:41.985Z,14.01
2023-01-27T01:36:15.436Z,14.24
2023-01-27T01:38:46.786Z,14.29
2023-01-27T01:41:20.453Z,14.59
2023-01-27T01:43:52.105Z,14.78
2023-01-27T01:46:22.737Z,14.51
2023-01-27T01:48:56.243Z,14.53
2023-01-27T01:51:35.679Z,14.42
2023-01-27T01:54:09.563Z,14.39
2023-01-27T01:56:43.378Z,14.60
2023-01-27T01:59:19.471Z,14.49
2023-01-27T02:01:54.267Z,14.19
2023-01-27T02:04:27.709Z,13.91
2023-01-27T02:07:16.162Z,14.59
2023-01-27T02:09:46.708Z,14.70
2023-01-27T02:12:17.286Z,14.88
2023-01-27T02:14:47.837Z,14.72
2023-01-27T02:17:18.597Z,14.82
2023-01-27T02:20:07.415Z,14.47
2023-01-27T02:22:55.636Z,14.12
2023-01-27T02:25:38.097Z,14.18
2023-01-27T02:28:09.760Z,14.39
2023-01-27T02:30:40.404Z,14.39
2023-01-27T02:33:16.287Z,14.67
2023-01-27T02:35:59.318Z,13.77
2023-01-27T02:38:32.789Z,14.57
2023-01-27T02:41:15.137Z,14.09
2023-01-27T02:43:45.730Z,14.01
2023-01-27T02:46:18.359Z,14.39
2023-01-27T02:48:48.915Z,14.33
2023-01-27T02:51:20.678Z,14.25
2023-01-27T02:53:51.239Z,13.96
2023-01-27T02:56:21.882Z,13.97
2023-01-27T02:58:52.442Z,14.51
2023-01-27T03:01:24.241Z,14.27
2023-01-27T03:03:56.050Z,14.69
2023-01-27T03:06:26.720Z,14.79
2023-01-27T03:08:57.315Z,14.56
2023-01-27T03:11:46.926Z,14.62
2023-01-27T03:14:18.172Z,14.67
2023-01-27T03:17:06.723Z,14.41
2023-01-27T03:19:37.297Z,14.19
2023-01-27T03:22:07.835Z,14.84
2023-01-27T03:24:39.631Z,14.88
2023-01-27T03:27:10.351Z,14.67
2023-01-27T03:29:56.065Z,14.87
2023-01-27T03:32:32.446Z,14.78
2023-01-27T03:35:04.117Z,14.55
2023-01-27T03:37:52.640Z,14.93
2023-01-27T03:40:41.242Z,14.89
2023-01-27T03:43:29.943Z,14.42
2023-01-27T03:46:17.673Z,14.07
2023-01-27T03:48:51.488Z,14.23
2023-01-27T03:51:25.713Z,14.21
2023-01-27T03:53:56.224Z,14.52
2023-01-27T03:56:26.781Z,14.79
2023-01-27T03:58:57.927Z,14.50
2023-01-27T04:01:28.534Z,14.03
2023-01-27T04:04:17.099Z,14.27
2023-01-27T04:06:55.480Z,14.24
2023-01-27T04:09:28.838Z,14.47
2023-01-27T04:12:01.050Z,14.46
2023-01-27T04:14:39.306Z,14.56
2023-01-27T04:17:12.773Z,14.70
2023-01-27T04:19:43.281Z,14.26
2023-01-27T04:22:15.929Z,14.53
2023-01-27T04:24:46.477Z,14.82
2023-01-27T04:27:18.663Z,14.73
2023-01-27T04:29:49.345Z,14.62
2023-01-27T04:32:19.968Z,14.86
2023-01-27T04:34:50.491Z,14.59
2023-01-27T04:37:21.096Z,14.45
2023-01-27T04:39:51.697Z,14.71
2023-01-27T04:42:22.312Z,14.02
2023-01-27T04:44:52.904Z,14.14
2023-01-27T04:47:23.433Z,14.24
2023-01-27T04:49:54.023Z,14.42
2023-01-27T04:52:26.129Z,14.28
2023-01-27T04:54:56.702Z,14.12
2023-01-27T04:57:28.268Z,14.45
2023-01-27T04:59:58.834Z,14.17
2023-01-27T05:02:29.423Z,14.11
2023-01-27T05:04:59.985Z,14.19
2023-01-27T05:07:32.162Z,14.14
2023-01-27T05:10:03.033Z,13.64
2023-01-27T05:12:33.896Z,13.92
2023-01-27T05:15:04.540Z,14.12
2023-01-27T05:17:36.018Z,14.29
2023-01-27T05:20:07.219Z,13.98
2023-01-27T05:22:37.781Z,13.97
2023-01-27T05:25:08.976Z,14.22
2023-01-27T05:27:39.891Z,14.12
2023-01-27T05:30:11.674Z,13.60
2023-01-27T05:32:42.247Z,14.08
2023-01-27T05:35:13.106Z,14.38
2023-01-27T05:37:43.865Z,14.16
2023-01-27T05:40:14.977Z,14.21
2023-01-27T05:42:45.567Z,13.86
2023-01-27T05:45:16.601Z,13.75
2023-01-27T05:47:55.025Z,13.79
2023-01-27T05:50:25.625Z,14.26
2023-01-27T05:52:56.185Z,13.87
2023-01-27T05:55:27.229Z,13.83
2023-01-27T05:57:57.792Z,13.66
2023-01-27T06:00:28.401Z,14.06
2023-01-27T06:02:58.983Z,14.18
2023-01-27T06:05:29.530Z,13.75
2023-01-27T06:08:00.123Z,14.20
2023-01-27T06:10:32.263Z,14.38
2023-01-27T06:13:04.048Z,14.54
2023-01-27T06:15:34.606Z,13.67
2023-01-27T06:18:05.276Z,14.24
2023-01-27T06:20:36.168Z,13.37
2023-01-27T06:23:07.642Z,14.34
2023-01-27T06:25:46.395Z,13.91
2023-01-27T06:28:30.447Z,14.11
2023-01-27T06:30:51.248Z,13.18
2023-01-27T06:33:21.874Z,13.49
2023-01-27T06:35:52.410Z,13.94
2023-01-27T06:38:22.993Z,13.82
2023-01-27T06:43:28.717Z,13.57
2023-01-27T06:45:59.349Z,13.94
2023-01-27T06:48:30.458Z,14.14
2023-01-27T06:51:00.993Z,13.25
2023-01-27T06:53:32.823Z,14.03
2023-01-27T06:56:03.931Z,14.01
2023-01-27T06:58:34.539Z,14.54
2023-01-27T07:01:07.530Z,14.34
2023-01-27T07:03:38.222Z,14.44
2023-01-27T07:06:10.686Z,14.57
2023-01-27T07:08:42.580Z,14.47
2023-01-27T07:11:13.197Z,14.46
2023-01-27T07:13:44.765Z,14.09
2023-01-27T07:16:15.421Z,14.29
2023-01-27T07:18:46.052Z,14.01
2023-01-27T07:21:16.627Z,14.42
2023-01-27T07:23:47.175Z,14.64
2023-01-27T07:26:25.130Z,14.41
2023-01-27T07:28:51.859Z,14.61
2023-01-27T07:31:22.578Z,14.86
2023-01-27T07:33:55.319Z,14.59
2023-01-27T07:36:25.950Z,14.76
2023-01-27T07:38:57.717Z,13.88
2023-01-27T07:41:28.314Z,14.23
2023-01-27T07:43:58.961Z,14.26
2023-01-27T07:46:29.588Z,14.05
2023-01-27T07:49:00.139Z,14.06
2023-01-27T07:51:31.898Z,14.07
2023-01-27T07:54:05.292Z,14.34
2023-01-27T07:56:36.614Z,14.28
2023-01-27T07:59:07.204Z,14.23
2023-01-27T08:01:38.466Z,14.54
2023-01-27T08:04:09.089Z,14.77
2023-01-27T08:06:40.464Z,14.88
2023-01-27T08:09:11.057Z,14.51
2023-01-27T08:11:41.600Z,14.99
2023-01-27T08:14:12.205Z,14.86
2023-01-27T08:16:42.790Z,15.02
2023-01-27T08:19:13.401Z,14.63
2023-01-27T08:21:43.969Z,14.93
2023-01-27T08:24:14.702Z,14.96
2023-01-27T08:26:45.390Z,14.84
2023-01-27T08:29:15.955Z,14.79
2023-01-27T08:31:46.568Z,14.79
2023-01-27T08:34:17.304Z,14.91
2023-01-27T08:36:47.924Z,15.25
2023-01-27T08:39:18.501Z,15.33
2023-01-27T08:41:49.017Z,15.35
2023-01-27T08:44:19.706Z,15.25
2023-01-27T08:46:50.271Z,15.22
2023-01-27T08:49:20.977Z,15.27
2023-01-27T08:51:51.501Z,15.34
2023-01-27T08:54:22.079Z,15.20
2023-01-27T08:56:53.848Z,15.36
2023-01-27T08:59:24.434Z,15.25
2023-01-27T09:01:54.968Z,14.97
2023-01-27T09:04:25.929Z,15.13
2023-01-27T09:06:56.513Z,15.30
2023-01-27T09:09:27.076Z,15.39
2023-01-27T09:11:57.774Z,14.97
2023-01-27T09:14:28.481Z,15.41
2023-01-27T09:17:00.164Z,15.72
2023-01-27T09:19:30.694Z,15.70
2023-01-27T09:22:01.263Z,15.59
2023-01-27T09:24:31.849Z,15.93
2023-01-27T09:27:02.390Z,15.56
2023-01-27T09:29:33.490Z,15.35
2023-01-27T09:32:04.758Z,14.60
2023-01-27T09:34:40.817Z,15.28
2023-01-27T09:37:15.837Z,15.39
2023-01-27T09:39:50.440Z,14.90
2023-01-27T09:42:39.506Z,15.40
2023-01-27T09:45:23.148Z,15.22
2023-01-27T09:48:02.345Z,15.54
2023-01-27T09:50:47.756Z,15.67
2023-01-27T09:53:32.558Z,15.53
2023-01-27T09:56:12.475Z,15.20
2023-01-27T09:58:59.452Z,14.84
2023-01-27T10:01:54.246Z,14.31
2023-01-27T10:04:47.665Z,14.65
2023-01-27T10:07:29.145Z,14.62
2023-01-27T10:10:14.034Z,14.47
2023-01-27T10:13:09.220Z,14.45
2023-01-27T10:16:03.929Z,15.05
2023-01-27T10:19:05.651Z,14.69
2023-01-27T10:21:53.554Z,14.38
2023-01-27T10:24:55.079Z,14.95
2023-01-27T10:27:29.543Z,14.95
2023-01-27T10:30:03.816Z,15.16
2023-01-27T10:32:49.928Z,14.52
2023-01-27T10:35:23.753Z,14.84
2023-01-27T10:38:05.307Z,14.50
2023-01-27T10:40:55.492Z,14.71
2023-01-27T10:43:39.857Z,14.60
2023-01-27T10:46:15.558Z,14.49
2023-01-27T10:48:53.710Z,15.23
2023-01-27T10:51:30.431Z,15.37
2023-01-27T10:54:16.081Z,15.34
2023-01-27T10:57:09.287Z,15.24
2023-01-27T10:59:55.261Z,15.56
2023-01-27T11:02:39.942Z,14.88
2023-01-27T11:05:16.267Z,15.04
2023-01-27T11:07:55.659Z,14.08
2023-01-27T11:10:34.567Z,15.11
2023-01-27T11:13:10.444Z,15.09
2023-01-27T11:15:44.744Z,14.75
2023-01-27T11:18:27.512Z,15.27
2023-01-27T11:21:24.281Z,14.59
2023-01-27T11:24:24.172Z,14.68
2023-01-27T11:27:08.234Z,15.07
2023-01-27T11:29:45.792Z,15.14
2023-01-27T11:32:30.690Z,14.63
2023-01-27T11:35:08.277Z,15.06
2023-01-27T11:37:48.679Z,15.03
2023-01-27T11:40:26.163Z,15.09
2023-01-27T11:43:02.524Z,15.22
2023-01-27T11:45:53.424Z,15.32
2023-01-27T11:48:24.135Z,15.63
2023-01-27T11:50:54.793Z,15.06
2023-01-27T11:53:32.864Z,14.87
2023-01-27T11:56:07.787Z,15.12
2023-01-27T11:58:44.110Z,14.41
2023-01-27T12:01:18.766Z,14.82
2023-01-27T12:04:04.895Z,15.22
2023-01-27T12:06:38.419Z,15.04
2023-01-27T12:09:10.420Z,14.88
2023-01-27T12:11:42.285Z,14.78
2023-01-27T12:14:14.607Z,15.14
2023-01-27T12:16:48.073Z,14.34
2023-01-27T12:19:32.219Z,14.56
2023-01-27T12:22:05.728Z,14.73
2023-01-27T12:24:42.678Z,14.60
2023-01-27T12:27:18.791Z,14.91
2023-01-27T12:29:58.111Z,14.58
2023-01-27T12:32:47.279Z,14.44
2023-01-27T12:35:32.854Z,14.79
2023-01-27T12:38:06.303Z,14.85
2023-01-27T12:40:38.432Z,14.09
2023-01-27T12:43:22.919Z,14.25
2023-01-27T12:46:17.512Z,14.52
2023-01-27T12:48:53.762Z,14.24
2023-01-27T12:51:27.348Z,13.81
2023-01-27T12:54:00.844Z,14.04
2023-01-27T12:56:33.577Z,14.24
2023-01-27T12:59:04.141Z,13.96
2023-01-27T13:01:39.171Z,13.85
2023-01-27T13:04:25.888Z,13.28
2023-01-27T13:06:59.428Z,14.06
2023-01-27T13:09:35.737Z,13.76
2023-01-27T13:12:30.182Z,13.65
2023-01-27T13:15:10.262Z,14.07
2023-01-27T13:17:46.509Z,14.41
2023-01-27T13:20:32.406Z,14.20
2023-01-27T13:23:14.741Z,13.58
2023-01-27T13:25:51.395Z,14.02
2023-01-27T13:28:51.270Z,14.37
2023-01-27T13:31:12.179Z,13.77
2023-01-27T13:33:54.609Z,14.11
2023-01-27T13:36:37.059Z,14.54
2023-01-27T13:39:39.286Z,14.39
2023-01-27T13:42:21.535Z,14.63
2023-01-27T13:45:17.592Z,14.50
2023-01-27T13:47:54.019Z,13.92
2023-01-27T13:50:27.917Z,13.92
2023-01-27T13:53:01.091Z,14.27
2023-01-27T13:55:40.449Z,14.69
2023-01-27T13:58:16.695Z,14.26
2023-01-27T14:00:53.354Z,14.68
2023-01-27T14:03:32.664Z,14.25
2023-01-27T14:06:20.690Z,14.66
2023-01-27T14:09:03.032Z,14.12
2023-01-27T14:11:42.178Z,14.18
2023-01-27T14:14:24.584Z,14.70
2023-01-27T14:16:59.325Z,14.29
2023-01-27T14:19:41.756Z,14.33
2023-01-27T14:22:24.305Z,13.87
2023-01-27T14:25:06.905Z,14.31
2023-01-27T14:27:42.935Z,14.69
2023-01-27T14:30:25.299Z,14.44
2023-01-27T14:33:02.060Z,14.45
2023-01-27T14:35:44.177Z,14.28
2023-01-27T14:38:23.398Z,14.12
2023-01-27T14:41:04.135Z,13.74
2023-01-27T14:43:58.962Z,14.53
2023-01-27T14:46:48.311Z,13.71
2023-01-27T14:49:57.228Z,13.83
2023-01-27T14:52:37.775Z,13.51
2023-01-27T14:55:33.944Z,13.87
2023-01-27T14:58:08.024Z,13.06
2023-01-27T15:00:56.515Z,14.19
2023-01-27T15:03:48.340Z,13.88
2023-01-27T15:06:29.117Z,13.47
2023-01-27T15:09:08.575Z,13.70
2023-01-27T15:11:48.252Z,13.37
2023-01-27T15:14:27.611Z,13.33
2023-01-27T15:17:03.904Z,13.59
2023-01-27T15:20:02.937Z,13.63
2023-01-27T15:22:51.339Z,13.38
2023-01-27T15:25:33.653Z,14.13
2023-01-27T15:28:05.405Z,14.16
2023-01-27T15:30:38.742Z,14.13
2023-01-27T15:33:45.671Z,14.26
2023-01-27T15:36:26.206Z,14.47
2023-01-27T15:39:05.941Z,14.02
2023-01-27T15:41:41.454Z,14.49
2023-01-27T15:44:27.097Z,14.14
2023-01-27T15:47:21.637Z,13.87
2023-01-27T15:50:00.831Z,14.08
2023-01-27T15:52:38.361Z,14.51
2023-01-27T15:55:11.656Z,13.91
2023-01-27T15:57:43.742Z,14.18
2023-01-27T16:00:26.463Z,14.20
2023-01-27T16:02:58.571Z,13.94
2023-01-27T16:05:31.976Z,13.56
2023-01-27T16:08:05.985Z,14.03
2023-01-27T16:10:37.341Z,14.16
2023-01-27T16:13:28.837Z,13.88
2023-01-27T16:16:22.021Z,13.36
2023-01-27T16:19:09.925Z,13.66
2023-01-27T16:21:52.691Z,13.87
2023-01-27T16:24:29.342Z,13.69
2023-01-27T16:27:08.483Z,13.71
2023-01-27T16:29:48.112Z,12.75
2023-01-27T16:32:22.154Z,13.56
2023-01-27T16:34:55.689Z,13.43
2023-01-27T16:37:31.834Z,13.15
2023-01-27T16:40:20.631Z,13.07
2023-01-27T16:43:00.166Z,12.45
2023-01-27T16:45:33.742Z,12.96
2023-01-27T16:48:10.059Z,12.73
2023-01-27T16:50:43.042Z,12.76
2023-01-27T16:53:22.380Z,13.20
2023-01-27T16:56:07.867Z,12.57
2023-01-27T16:58:46.667Z,13.31
2023-01-27T17:01:13.468Z,12.57
2023-01-27T17:03:43.973Z,12.81
2023-01-27T17:06:17.220Z,13.28
2023-01-27T17:08:49.858Z,13.48
2023-01-27T17:11:26.379Z,12.91
2023-01-27T17:14:05.475Z,12.58
2023-01-27T17:16:42.545Z,12.90
2023-01-27T17:19:21.754Z,12.30
2023-01-27T17:22:00.983Z,12.41
2023-01-27T17:24:49.623Z,13.13
2023-01-27T17:27:30.944Z,12.14
2023-01-27T17:30:25.491Z,12.70
2023-01-27T17:32:58.874Z,12.23
2023-01-27T17:35:37.979Z,12.69
2023-01-27T17:38:26.597Z,12.73
2023-01-27T17:40:57.050Z,12.15
2023-01-27T17:43:32.952Z,12.54
2023-01-27T17:46:22.115Z,12.27
2023-01-27T17:49:04.177Z,11.93
2023-01-27T17:51:45.719Z,11.92
2023-01-27T17:54:23.039Z,11.24
2023-01-27T17:57:20.187Z,11.90
2023-01-27T18:00:12.857Z,11.69
2023-01-27T18:03:18.992Z,11.35
2023-01-27T18:05:53.046Z,11.55
2023-01-27T18:08:27.392Z,11.16
2023-01-27T18:11:16.624Z,12.01
2023-01-27T18:13:55.597Z,10.70
2023-01-27T18:16:30.981Z,11.24
2023-01-27T18:19:27.976Z,10.96
2023-01-27T18:22:16.582Z,10.99
2023-01-27T18:24:58.615Z,10.65
2023-01-27T18:27:34.288Z,10.28
2023-01-27T18:30:12.808Z,10.74
2023-01-27T18:32:50.686Z,10.30
2023-01-27T18:35:31.479Z,11.02
2023-01-27T18:38:11.636Z,10.92
2023-01-27T18:40:42.994Z,10.01
2023-01-27T18:43:15.178Z,11.39
2023-01-27T18:45:48.141Z,11.08
2023-01-27T18:48:19.612Z,10.91
2023-01-27T18:50:52.639Z,11.15
2023-01-27T18:53:26.520Z,10.75
2023-01-27T18:56:01.625Z,10.91
2023-01-27T18:58:37.096Z,10.42
2023-01-27T19:01:16.440Z,10.04
2023-01-27T19:03:54.042Z,10.40
2023-01-27T19:06:28.066Z,10.20
2023-01-27T19:08:59.985Z,10.47
2023-01-27T19:11:34.699Z,10.05
2023-01-27T19:14:07.184Z,10.42
2023-01-27T19:16:40.350Z,10.39
2023-01-27T19:19:14.928Z,10.27
2023-01-27T19:21:45.945Z,9.76
2023-01-27T19:24:21.204Z,10.60
2023-01-27T19:27:04.140Z,10.28
2023-01-27T19:29:35.357Z,10.70
2023-01-27T19:32:08.415Z,10.05
2023-01-27T19:34:40.356Z,10.00
2023-01-27T19:37:19.439Z,9.73
2023-01-27T19:39:51.985Z,10.66
2023-01-27T19:42:23.886Z,10.58
2023-01-27T19:44:59.229Z,10.32
2023-01-27T19:47:34.378Z,9.88
2023-01-27T19:50:08.869Z,10.45
2023-01-27T19:52:41.465Z,10.83
2023-01-27T19:55:13.710Z,10.23
2023-01-27T19:57:48.598Z,10.11
2023-01-27T20:00:29.262Z,10.12
2023-01-27T20:03:01.665Z,9.99
2023-01-27T20:05:40.303Z,10.63
2023-01-27T20:08:15.672Z,10.66
2023-01-27T20:10:50.827Z,10.17
2023-01-27T20:13:23.655Z,9.80
2023-01-27T20:15:54.607Z,10.20
2023-01-27T20:18:25.078Z,10.28
2023-01-27T20:20:55.589Z,10.69
2023-01-27T20:23:26.116Z,10.73
2023-01-27T20:25:58.323Z,10.90
2023-01-27T20:28:30.248Z,11.02
2023-01-27T20:31:02.160Z,11.05
2023-01-27T20:33:32.784Z,10.17
2023-01-27T20:36:08.423Z,10.76
2023-01-27T20:38:40.942Z,10.95
2023-01-27T20:41:14.798Z,10.86
2023-01-27T20:43:45.388Z,11.11
2023-01-27T20:46:21.109Z,10.81
2023-01-27T20:48:53.052Z,10.49
2023-01-27T20:51:23.658Z,11.10
2023-01-27T20:53:54.164Z,10.86
2023-01-27T20:56:25.514Z,11.11
2023-01-27T20:58:56.024Z,11.03
2023-01-27T21:01:26.810Z,10.45
2023-01-27T21:03:57.397Z,10.48
2023-01-27T21:06:27.856Z,10.55
2023-01-27T21:08:58.319Z,10.86
2023-01-27T21:11:28.951Z,10.79
2023-01-27T21:13:59.385Z,11.17
2023-01-27T21:16:29.944Z,10.77
2023-01-27T21:19:00.564Z,11.37
2023-01-27T21:21:32.504Z,11.24
2023-01-27T21:24:03.199Z,11.24
2023-01-27T21:26:33.788Z,10.91
2023-01-27T21:29:05.268Z,10.91
2023-01-27T21:31:35.840Z,11.25
2023-01-27T21:34:06.485Z,11.85
2023-01-27T21:36:37.407Z,11.33
2023-01-27T21:39:08.454Z,11.35
2023-01-27T21:41:55.941Z,11.14
2023-01-27T21:44:49.205Z,11.22
2023-01-27T21:47:20.747Z,11.22
2023-01-27T21:50:04.504Z,11.15
2023-01-27T21:52:39.418Z,10.98
2023-01-27T21:55:16.040Z,11.27
2023-01-27T21:57:48.689Z,11.82
2023-01-27T22:00:22.684Z,11.19
2023-01-27T22:03:00.235Z,11.49
2023-01-27T22:05:33.075Z,11.57
2023-01-27T22:08:03.806Z,10.62
2023-01-27T22:10:35.605Z,10.95
2023-01-27T22:13:06.179Z,11.38
2023-01-27T22:15:36.620Z,11.57
2023-01-27T22:18:07.409Z,11.01
2023-01-27T22:20:38.562Z,11.52
2023-01-27T22:23:09.024Z,11.41
2023-01-27T22:25:39.542Z,11.41
2023-01-27T22:28:10.097Z,11.48
2023-01-27T22:30:40.560Z,11.77
2023-01-27T22:33:11.035Z,10.76
2023-01-27T22:35:41.484Z,11.38
2023-01-27T22:38:12.068Z,11.28
2023-01-27T22:40:42.503Z,10.65
2023-01-27T22:43:13.004Z,11.67
2023-01-27T22:45:43.505Z,11.28
2023-01-27T22:48:14.645Z,11.93
2023-01-27T22:50:45.112Z,11.06
2023-01-27T22:53:15.632Z,10.55
2023-01-27T22:55:46.103Z,10.89
2023-01-27T22:58:17.853Z,11.71
2023-01-27T23:00:49.554Z,11.44
2023-01-27T23:03:20.668Z,11.31
2023-01-27T23:05:51.363Z,11.14
2023-01-27T23:08:21.938Z,10.75
2023-01-27T23:10:52.500Z,11.23
2023-01-27T23:13:24.172Z,11.26
2023-01-27T23:15:54.603Z,11.18
2023-01-27T23:18:26.047Z,11.57
2023-01-27T23:21:00.534Z,11.74
2023-01-27T23:23:31.092Z,11.36
2023-01-27T23:26:01.597Z,11.18
2023-01-27T23:28:33.225Z,11.32
2023-01-27T23:31:05.613Z,11.49
2023-01-27T23:33:39.298Z,11.19
2023-01-27T23:36:11.938Z,11.18
2023-01-27T23:38:42.447Z,11.70
2023-01-27T23:41:15.915Z,11.46
2023-01-27T23:43:55.367Z,11.34
2023-01-27T23:46:26.913Z,11.09
2023-01-27T23:48:58.694Z,11.66
2023-01-27T23:51:29.159Z,11.75
2023-01-27T23:53:59.677Z,11.64
2023-01-27T23:56:30.145Z,11.88
2023-01-27T23:59:00.601Z,11.73
